TimeEDT,TemperatureF,Dew PointF,Humidity,Sea Level PressureIn,VisibilityMPH,Wind Direction,Wind SpeedMPH,Gust SpeedMPH,PrecipitationIn,Events,Conditions,WindDirDegrees,DateUTC
12:54 AM,75.0,72.0,90,30.10,10.0,WSW,6.9,-,N/A,,Clear,240,2013-06-24 04:54:00
1:54 AM,73.9,72.0,93,30.10,10.0,WSW,5.8,-,N/A,,Scattered Clouds,250,2013-06-24 05:54:00
2:54 AM,73.9,71.1,91,30.09,10.0,WSW,5.8,-,N/A,,Partly Cloudy,250,2013-06-24 06:54:00
3:54 AM,73.0,70.0,90,30.09,10.0,WSW,3.5,-,N/A,,Clear,240,2013-06-24 07:54:00
4:54 AM,73.9,71.1,91,30.09,10.0,SSW,5.8,-,N/A,,Clear,210,2013-06-24 08:54:00
5:54 AM,73.9,71.1,91,30.09,10.0,WSW,5.8,-,N/A,,Clear,240,2013-06-24 09:54:00
6:54 AM,75.0,71.1,87,30.09,10.0,SW,5.8,-,N/A,,Clear,230,2013-06-24 10:54:00
7:54 AM,77.0,72.0,84,30.10,10.0,WSW,8.1,-,N/A,,Clear,240,2013-06-24 11:54:00
8:54 AM,81.0,71.1,72,30.11,10.0,WSW,6.9,-,N/A,,Clear,250,2013-06-24 12:54:00
9:54 AM,84.0,72.0,67,30.09,10.0,West,8.1,-,N/A,,Clear,260,2013-06-24 13:54:00
10:54 AM,88.0,70.0,55,30.10,10.0,NW,8.1,-,N/A,,Clear,310,2013-06-24 14:54:00
11:54 AM,90.0,69.1,50,30.09,10.0,West,5.8,-,N/A,,Clear,270,2013-06-24 15:54:00
12:54 PM,90.0,69.1,50,30.08,10.0,West,9.2,-,N/A,,Clear,280,2013-06-24 16:54:00
1:42 PM,91.4,69.8,49,30.06,10.0,West,8.1,-,N/A,Thunderstorm,Thunderstorm,260,2013-06-24 17:42:00
1:54 PM,91.0,68.0,47,30.05,10.0,West,8.1,-,N/A,,Clear,270,2013-06-24 17:54:00
2:39 PM,87.8,68.0,52,30.03,10.0,West,11.5,-,N/A,Thunderstorm,Partly Cloudy,260,2013-06-24 18:39:00
2:54 PM,82.9,71.1,67,30.03,4.0,West,11.5,-,0.01,Rain-Thunderstorm,Thunderstorms and Rain,280,2013-06-24 18:54:00
3:54 PM,79.0,62.1,56,30.03,10.0,WSW,12.7,18.4,0.00,Thunderstorm,Scattered Clouds,240,2013-06-24 19:54:00
4:11 PM,78.8,62.6,57,30.03,10.0,WSW,10.4,-,N/A,,Partly Cloudy,250,2013-06-24 20:11:00
4:54 PM,82.9,62.1,49,30.02,10.0,Calm,Calm,-,N/A,,Clear,0,2013-06-24 20:54:00
5:54 PM,81.0,64.0,56,30.02,10.0,Calm,Calm,-,N/A,,Clear,0,2013-06-24 21:54:00
6:54 PM,80.1,64.0,58,30.02,10.0,Calm,Calm,-,N/A,,Clear,0,2013-06-24 22:54:00
7:10 PM,80.6,64.4,58,30.04,10.0,NW,6.9,-,N/A,Thunderstorm,Scattered Clouds,320,2013-06-24 23:10:00
7:25 PM,80.6,64.4,58,30.03,10.0,North,4.6,-,N/A,,Scattered Clouds,350,2013-06-24 23:25:00
7:35 PM,80.6,66.2,61,30.03,10.0,Calm,Calm,-,N/A,Thunderstorm,Mostly Cloudy,0,2013-06-24 23:35:00
7:54 PM,81.0,64.9,58,30.02,10.0,SSW,3.5,-,N/A,Thunderstorm,Scattered Clouds,210,2013-06-24 23:54:00
8:47 PM,75.2,60.8,61,30.04,10.0,SSW,8.1,-,N/A,Thunderstorm,Clear,200,2013-06-25 00:47:00
8:54 PM,75.0,62.1,64,30.03,10.0,SSW,5.8,-,N/A,Thunderstorm,Clear,200,2013-06-25 00:54:00
9:12 PM,75.2,62.6,65,30.03,10.0,Calm,Calm,-,N/A,,Clear,0,2013-06-25 01:12:00
9:54 PM,73.0,66.9,81,30.03,10.0,SW,3.5,-,N/A,,Clear,230,2013-06-25 01:54:00
10:54 PM,70.0,66.9,90,30.03,10.0,Calm,Calm,-,N/A,,Clear,0,2013-06-25 02:54:00
11:54 PM,72.0,66.9,84,30.03,10.0,Calm,Calm,-,N/A,,Clear,0,2013-06-25 03:54:00